Time;durP1;ratioP1;P1;durP2;ratioP2;P2;SDS_P1;SDS_P2;PMS_P1;PMS_P2;Temp;Humidity;BMP_temperature;BMP_pressure;BME280_temperature;BME280_humidity;BME280_pressure;Samples;Min_cycle;Max_cycle;Signal;HPM_P1;HPM_P2
2021/12/27 00:01:06;;;;;;;25.27;13.50;;;;;;;;;;5010149;28;20240;-85
2021/12/27 00:03:32;;;;;;;24.37;13.40;;;;;;;;;;5015473;28;20190;-86
2021/12/27 00:05:57;;;;;;;25.47;13.50;;;;;;;;;;5013843;28;20198;-85
2021/12/27 00:08:23;;;;;;;24.70;13.60;;;;;;;;;;5016743;28;20183;-86
2021/12/27 00:10:49;;;;;;;26.77;12.80;;;;;;;;;;5029715;28;20193;-85
2021/12/27 00:13:15;;;;;;;24.13;13.17;;;;;;;;;;5015926;28;20192;-85
2021/12/27 00:15:42;;;;;;;24.37;13.33;;;;;;;;;;5013820;28;20185;-85
2021/12/27 00:18:07;;;;;;;25.73;14.17;;;;;;;;;;5019492;28;20181;-85
2021/12/27 00:20:33;;;;;;;27.47;13.77;;;;;;;;;;5029657;28;20187;-85
2021/12/27 00:22:58;;;;;;;27.43;13.73;;;;;;;;;;5017185;28;20182;-85
2021/12/27 00:25:24;;;;;;;26.27;14.13;;;;;;;;;;5016728;28;24051;-85
2021/12/27 00:27:50;;;;;;;25.30;14.17;;;;;;;;;;5012498;28;20186;-85
2021/12/27 00:30:15;;;;;;;26.30;14.10;;;;;;;;;;5034011;28;20213;-85
2021/12/27 00:32:43;;;;;;;28.37;14.17;;;;;;;;;;5012707;28;20291;-85
2021/12/27 00:35:11;;;;;;;25.30;14.40;;;;;;;;;;5013951;28;20607;-85
2021/12/27 00:37:36;;;;;;;26.37;14.20;;;;;;;;;;5031891;28;20324;-85
2021/12/27 00:40:03;;;;;;;26.63;14.20;;;;;;;;;;5035984;28;21286;-85
2021/12/27 00:42:29;;;;;;;24.40;13.40;;;;;;;;;;5011220;28;20907;-85
2021/12/27 00:44:54;;;;;;;27.17;13.40;;;;;;;;;;5032978;28;20209;-86
2021/12/27 00:47:20;;;;;;;27.20;14.47;;;;;;;;;;5008075;28;20186;-85
2021/12/27 00:49:45;;;;;;;27.80;13.87;;;;;;;;;;5038399;28;20201;-85
2021/12/27 00:52:10;;;;;;;26.70;14.27;;;;;;;;;;5012174;28;20185;-85
2021/12/27 00:54:36;;;;;;;26.40;14.23;;;;;;;;;;5014363;28;20190;-85
2021/12/27 00:57:01;;;;;;;26.70;13.70;;;;;;;;;;5007959;28;20213;-84
2021/12/27 00:59:27;;;;;;;25.53;14.00;;;;;;;;;;5016057;28;20202;-85
2021/12/27 01:01:52;;;;;;;27.40;14.47;;;;;;;;;;5012650;28;20295;-85
2021/12/27 01:04:18;;;;;;;26.13;14.20;;;;;;;;;;5013644;28;20661;-84
2021/12/27 01:06:44;;;;;;;29.03;13.77;;;;;;;;;;5015488;28;20194;-84
2021/12/27 01:09:14;;;;;;;25.00;14.07;;;;;;;;;;5014435;28;20201;-84
2021/12/27 01:15:05;;;;;;;25.67;13.97;;;;;;;;;;5010893;28;20309;-84
2021/12/27 01:17:29;;;;;;;27.13;13.33;;;;;;;;;;5014710;28;20298;-85
2021/12/27 01:19:58;;;;;;;26.00;13.83;;;;;;;;;;5006972;28;20641;-84
2021/12/27 01:22:23;;;;;;;27.90;14.20;;;;;;;;;;5010234;28;20277;-85
2021/12/27 01:24:51;;;;;;;29.53;14.77;;;;;;;;;;5006471;28;20293;-85
2021/12/27 01:27:17;;;;;;;27.90;13.80;;;;;;;;;;5013536;28;20182;-86
2021/12/27 01:29:42;;;;;;;27.67;14.63;;;;;;;;;;5007432;28;20198;-86
2021/12/27 01:32:09;;;;;;;27.27;14.27;;;;;;;;;;5011721;28;20214;-85
2021/12/27 01:34:37;;;;;;;26.33;14.00;;;;;;;;;;5009669;28;20253;-85
2021/12/27 01:37:02;;;;;;;29.53;14.27;;;;;;;;;;5013082;28;20183;-85
2021/12/27 01:39:28;;;;;;;23.97;13.57;;;;;;;;;;5007954;28;20260;-85
2021/12/27 01:41:54;;;;;;;25.63;14.53;;;;;;;;;;5016325;28;20205;-85
2021/12/27 01:44:22;;;;;;;24.27;13.73;;;;;;;;;;5006272;28;20309;-85
2021/12/27 01:46:48;;;;;;;23.30;13.33;;;;;;;;;;5010141;28;20190;-86
2021/12/27 01:49:13;;;;;;;27.27;14.00;;;;;;;;;;5012691;28;20194;-85
2021/12/27 01:51:40;;;;;;;28.20;14.90;;;;;;;;;;5009432;28;20281;-85
2021/12/27 01:54:06;;;;;;;25.17;13.70;;;;;;;;;;5010424;28;20290;-85
2021/12/27 01:56:33;;;;;;;28.10;13.67;;;;;;;;;;5012292;28;20325;-85
2021/12/27 01:58:59;;;;;;;25.80;14.07;;;;;;;;;;5016411;28;20262;-85
2021/12/27 02:01:25;;;;;;;25.40;14.00;;;;;;;;;;5007950;28;20566;-85
2021/12/27 02:03:54;;;;;;;25.97;14.03;;;;;;;;;;5011370;28;20205;-85
2021/12/27 02:06:20;;;;;;;27.43;13.83;;;;;;;;;;5012641;28;20700;-85
2021/12/27 02:08:46;;;;;;;28.03;14.33;;;;;;;;;;5011979;28;20190;-86
2021/12/27 02:11:15;;;;;;;27.50;14.77;;;;;;;;;;5008482;28;20277;-85
2021/12/27 02:13:45;;;;;;;25.63;13.13;;;;;;;;;;5008216;28;20678;-85
2021/12/27 02:16:14;;;;;;;26.17;13.77;;;;;;;;;;5009324;28;20637;-85
2021/12/27 02:18:44;;;;;;;25.97;13.47;;;;;;;;;;5009589;28;20205;-85
2021/12/27 02:21:10;;;;;;;25.37;13.57;;;;;;;;;;4995155;28;20183;-85
2021/12/27 02:23:37;;;;;;;28.87;14.70;;;;;;;;;;5010240;28;20191;-85
2021/12/27 02:26:03;;;;;;;25.97;13.77;;;;;;;;;;5010506;28;20199;-85
2021/12/27 02:28:28;;;;;;;25.27;13.40;;;;;;;;;;5009435;28;20278;-85
2021/12/27 02:30:54;;;;;;;26.23;13.83;;;;;;;;;;5011692;28;20197;-85
2021/12/27 02:33:20;;;;;;;27.07;14.03;;;;;;;;;;5012630;28;20205;-84
2021/12/27 02:35:49;;;;;;;27.30;14.20;;;;;;;;;;5012321;28;20289;-84
2021/12/27 02:38:21;;;;;;;28.77;13.70;;;;;;;;;;5010630;28;20186;-85
2021/12/27 02:40:51;;;;;;;24.73;13.47;;;;;;;;;;5010545;28;20197;-85
2021/12/27 02:43:18;;;;;;;26.73;13.10;;;;;;;;;;5005620;28;20252;-85
2021/12/27 02:45:50;;;;;;;27.10;13.97;;;;;;;;;;5004299;28;20754;-85
2021/12/27 02:48:18;;;;;;;27.47;14.13;;;;;;;;;;5010225;28;20549;-85
2021/12/27 02:50:45;;;;;;;24.10;13.23;;;;;;;;;;5006830;28;20182;-85
2021/12/27 02:53:12;;;;;;;27.67;14.47;;;;;;;;;;5016700;28;20197;-85
2021/12/27 02:55:38;;;;;;;23.70;13.47;;;;;;;;;;5013762;28;20185;-84
2021/12/27 02:58:04;;;;;;;27.20;13.87;;;;;;;;;;5009085;28;20202;-85
2021/12/27 03:00:33;;;;;;;25.97;13.37;;;;;;;;;;5011736;28;20202;-85
2021/12/27 03:02:58;;;;;;;25.53;13.87;;;;;;;;;;5029170;28;20234;-85
2021/12/27 03:05:26;;;;;;;29.97;14.53;;;;;;;;;;5012778;28;20619;-85
2021/12/27 03:07:52;;;;;;;23.67;13.20;;;;;;;;;;5009460;28;20272;-85
2021/12/27 03:10:21;;;;;;;26.03;13.87;;;;;;;;;;5013890;28;20233;-85
2021/12/27 03:12:48;;;;;;;27.83;14.77;;;;;;;;;;5011814;28;20193;-85
2021/12/27 03:15:15;;;;;;;27.50;14.60;;;;;;;;;;5016763;28;20193;-85
2021/12/27 03:17:42;;;;;;;25.17;13.37;;;;;;;;;;5036561;28;20264;-85
2021/12/27 03:20:09;;;;;;;28.27;14.53;;;;;;;;;;5014471;28;20190;-85
2021/12/27 03:22:37;;;;;;;28.63;14.20;;;;;;;;;;5011513;28;20182;-85
2021/12/27 03:25:04;;;;;;;24.40;13.67;;;;;;;;;;5026708;28;20301;-85
2021/12/27 03:27:29;;;;;;;25.03;14.03;;;;;;;;;;5033352;28;20201;-85
2021/12/27 03:29:54;;;;;;;25.73;14.70;;;;;;;;;;5013283;28;20197;-85
2021/12/27 03:32:21;;;;;;;31.00;13.93;;;;;;;;;;5017576;28;20186;-85
2021/12/27 03:34:55;;;;;;;26.77;14.30;;;;;;;;;;5033818;28;20321;-83
2021/12/27 03:37:22;;;;;;;26.37;14.83;;;;;;;;;;5016437;28;20193;-84
2021/12/27 03:39:48;;;;;;;30.80;14.87;;;;;;;;;;5019374;28;20186;-86
2021/12/27 03:42:15;;;;;;;24.37;13.10;;;;;;;;;;5029454;28;20194;-85
2021/12/27 03:44:41;;;;;;;23.80;13.17;;;;;;;;;;5018905;28;20209;-85
2021/12/27 03:47:06;;;;;;;25.40;13.23;;;;;;;;;;5033083;28;20194;-85
2021/12/27 03:49:31;;;;;;;24.97;13.07;;;;;;;;;;5021633;28;20190;-85
2021/12/27 03:51:57;;;;;;;28.63;14.43;;;;;;;;;;5010358;28;20190;-85
2021/12/27 03:54:22;;;;;;;25.43;13.63;;;;;;;;;;5017486;28;20182;-85
2021/12/27 03:56:48;;;;;;;26.50;14.10;;;;;;;;;;5012374;28;20186;-85
2021/12/27 03:59:22;;;;;;;27.00;14.53;;;;;;;;;;5013291;28;20247;-84
2021/12/27 04:01:48;;;;;;;26.30;14.07;;;;;;;;;;5026905;28;20236;-84
2021/12/27 04:04:14;;;;;;;28.63;14.00;;;;;;;;;;5015059;28;20185;-85
2021/12/27 04:06:39;;;;;;;25.83;14.13;;;;;;;;;;5010140;28;20228;-84
2021/12/27 04:09:04;;;;;;;25.93;14.57;;;;;;;;;;5035652;28;20178;-85
2021/12/27 04:11:31;;;;;;;23.07;12.93;;;;;;;;;;5018267;28;20182;-86
2021/12/27 04:14:02;;;;;;;26.07;13.67;;;;;;;;;;5026335;28;20238;-85
2021/12/27 04:16:28;;;;;;;25.23;13.50;;;;;;;;;;5017528;28;20265;-84
2021/12/27 04:18:54;;;;;;;23.97;13.77;;;;;;;;;;5010328;28;20221;-85
2021/12/27 04:21:20;;;;;;;29.23;16.33;;;;;;;;;;5016382;28;20182;-85
2021/12/27 04:23:46;;;;;;;28.03;14.23;;;;;;;;;;5030799;28;20535;-84
2021/12/27 04:26:11;;;;;;;29.77;15.47;;;;;;;;;;5013809;28;20213;-84
2021/12/27 04:28:37;;;;;;;28.23;14.43;;;;;;;;;;5011112;28;20198;-84
2021/12/27 04:31:05;;;;;;;27.43;14.87;;;;;;;;;;5034501;28;20186;-85
2021/12/27 04:33:30;;;;;;;26.97;14.67;;;;;;;;;;5029459;28;20198;-85
2021/12/27 04:35:56;;;;;;;28.63;14.97;;;;;;;;;;5020439;28;20189;-85
2021/12/27 04:38:21;;;;;;;29.43;15.50;;;;;;;;;;5030274;28;20182;-85
2021/12/27 04:40:51;;;;;;;31.23;15.40;;;;;;;;;;5015164;28;20198;-85
2021/12/27 04:43:20;;;;;;;27.83;15.10;;;;;;;;;;5024602;28;20247;-85
2021/12/27 04:45:47;;;;;;;28.50;15.53;;;;;;;;;;5031704;28;20213;-85
2021/12/27 04:48:13;;;;;;;26.67;14.97;;;;;;;;;;5016861;28;20217;-86
2021/12/27 04:50:39;;;;;;;33.07;15.37;;;;;;;;;;5029584;28;20197;-86
2021/12/27 04:53:06;;;;;;;27.70;15.47;;;;;;;;;;5034534;28;20189;-86
2021/12/27 04:55:34;;;;;;;31.40;16.00;;;;;;;;;;5013212;28;20190;-87
2021/12/27 04:58:00;;;;;;;31.47;15.80;;;;;;;;;;5015053;28;20689;-87
2021/12/27 05:00:26;;;;;;;29.03;14.97;;;;;;;;;;5014494;28;20559;-86
2021/12/27 05:02:52;;;;;;;29.63;15.67;;;;;;;;;;5034263;28;20248;-86
2021/12/27 05:05:17;;;;;;;27.50;15.40;;;;;;;;;;5013405;28;20202;-87
2021/12/27 05:07:44;;;;;;;33.67;16.03;;;;;;;;;;5013529;28;20194;-87
2021/12/27 05:10:10;;;;;;;32.50;15.37;;;;;;;;;;5014382;28;20178;-86
2021/12/27 05:12:35;;;;;;;30.20;15.63;;;;;;;;;;5014982;28;20178;-86
2021/12/27 05:15:03;;;;;;;31.53;16.53;;;;;;;;;;5011005;28;20224;-85
2021/12/27 05:17:29;;;;;;;33.13;16.13;;;;;;;;;;5013951;28;20573;-85
2021/12/27 05:19:54;;;;;;;29.70;15.33;;;;;;;;;;5012007;28;20194;-87
2021/12/27 05:22:20;;;;;;;34.00;15.00;;;;;;;;;;5017654;28;20186;-87
2021/12/27 05:24:45;;;;;;;33.60;16.23;;;;;;;;;;5013247;28;20203;-86
2021/12/27 05:27:10;;;;;;;31.30;16.13;;;;;;;;;;5013183;28;20193;-86
2021/12/27 05:29:38;;;;;;;31.47;16.20;;;;;;;;;;5013927;28;20182;-87
2021/12/27 05:32:04;;;;;;;30.63;15.57;;;;;;;;;;5012272;28;20193;-86
2021/12/27 05:34:30;;;;;;;32.03;15.57;;;;;;;;;;5029340;28;20210;-86
2021/12/27 05:36:56;;;;;;;30.77;15.40;;;;;;;;;;5010037;28;20224;-87
2021/12/27 05:39:22;;;;;;;30.70;15.80;;;;;;;;;;5013303;28;20189;-86
2021/12/27 05:41:50;;;;;;;33.30;16.57;;;;;;;;;;5013173;28;20197;-87
2021/12/27 05:44:16;;;;;;;30.73;16.13;;;;;;;;;;5034155;28;20211;-87
2021/12/27 05:46:42;;;;;;;31.23;16.07;;;;;;;;;;5014537;28;20213;-85
2021/12/27 05:49:08;;;;;;;34.23;17.03;;;;;;;;;;5014732;28;20218;-86
2021/12/27 05:51:33;;;;;;;30.93;16.43;;;;;;;;;;5016960;28;20189;-86
2021/12/27 05:53:59;;;;;;;28.53;15.73;;;;;;;;;;5004493;28;20182;-86
2021/12/27 05:56:25;;;;;;;31.47;15.50;;;;;;;;;;5015176;28;20181;-86
2021/12/27 05:58:51;;;;;;;30.00;15.53;;;;;;;;;;5009043;28;20305;-86
2021/12/27 06:01:16;;;;;;;32.20;16.47;;;;;;;;;;5011516;28;20268;-86
2021/12/27 06:03:42;;;;;;;28.77;15.03;;;;;;;;;;5010935;28;20704;-86
2021/12/27 06:06:07;;;;;;;32.83;16.37;;;;;;;;;;5012410;28;20267;-86
2021/12/27 06:08:33;;;;;;;28.77;15.57;;;;;;;;;;5010292;28;20214;-86
2021/12/27 06:10:58;;;;;;;33.07;15.87;;;;;;;;;;5016305;28;20190;-86
2021/12/27 06:13:24;;;;;;;33.57;16.07;;;;;;;;;;5008847;28;20650;-86
2021/12/27 06:15:49;;;;;;;33.67;16.03;;;;;;;;;;5007593;28;20182;-86
2021/12/27 06:18:14;;;;;;;38.00;17.33;;;;;;;;;;5006963;28;20533;-86
2021/12/27 06:20:40;;;;;;;33.33;16.47;;;;;;;;;;5014706;28;20186;-86
2021/12/27 06:23:05;;;;;;;33.17;15.43;;;;;;;;;;5014626;28;20186;-86
2021/12/27 06:25:31;;;;;;;31.00;15.70;;;;;;;;;;5010114;28;20202;-86
2021/12/27 06:27:58;;;;;;;31.67;15.43;;;;;;;;;;5028626;28;20190;-86
2021/12/27 06:30:23;;;;;;;30.13;16.30;;;;;;;;;;5011631;28;20193;-86
2021/12/27 06:32:49;;;;;;;33.70;15.93;;;;;;;;;;5013813;28;20286;-86
2021/12/27 06:35:16;;;;;;;29.83;15.40;;;;;;;;;;5027217;28;20182;-85
2021/12/27 06:37:44;;;;;;;30.70;15.87;;;;;;;;;;5014058;28;20870;-85
2021/12/27 06:40:12;;;;;;;35.27;15.83;;;;;;;;;;5005669;28;20578;-85
2021/12/27 06:42:38;;;;;;;34.90;16.03;;;;;;;;;;5013602;28;20182;-85
2021/12/27 06:45:04;;;;;;;35.00;17.67;;;;;;;;;;5009498;28;20291;-86
2021/12/27 06:47:33;;;;;;;36.00;17.03;;;;;;;;;;5040638;28;20227;-86
2021/12/27 06:49:58;;;;;;;37.00;16.90;;;;;;;;;;5028517;28;20194;-86
2021/12/27 06:52:24;;;;;;;35.00;16.67;;;;;;;;;;5025170;28;20569;-86
2021/12/27 06:54:50;;;;;;;36.07;17.07;;;;;;;;;;5009957;28;20182;-86
2021/12/27 06:57:18;;;;;;;38.10;16.80;;;;;;;;;;5009847;28;20212;-86
2021/12/27 06:59:44;;;;;;;36.20;16.83;;;;;;;;;;5017699;28;20210;-86
2021/12/27 07:02:09;;;;;;;36.80;17.63;;;;;;;;;;5003771;28;20258;-86
2021/12/27 07:04:35;;;;;;;34.97;17.50;;;;;;;;;;5014524;28;20210;-86
2021/12/27 07:07:00;;;;;;;39.03;17.03;;;;;;;;;;5000282;28;20183;-86
2021/12/27 07:09:26;;;;;;;40.93;17.73;;;;;;;;;;5015111;28;20206;-86
2021/12/27 07:11:51;;;;;;;41.63;17.73;;;;;;;;;;5004617;28;20206;-86
2021/12/27 07:14:17;;;;;;;41.93;16.83;;;;;;;;;;5008409;28;20183;-86
2021/12/27 07:16:43;;;;;;;37.80;16.83;;;;;;;;;;5004467;28;20198;-86
2021/12/27 07:19:09;;;;;;;42.33;17.13;;;;;;;;;;5012402;28;20190;-86
2021/12/27 07:21:34;;;;;;;43.20;17.90;;;;;;;;;;5006914;28;20194;-87
2021/12/27 07:24:00;;;;;;;38.87;16.93;;;;;;;;;;5011094;28;20583;-87
2021/12/27 07:26:25;;;;;;;42.00;17.63;;;;;;;;;;5008720;28;20199;-86
2021/12/27 07:28:51;;;;;;;35.50;16.83;;;;;;;;;;5007473;28;20199;-86
2021/12/27 07:31:16;;;;;;;41.60;17.20;;;;;;;;;;5011792;28;20183;-87
2021/12/27 07:33:41;;;;;;;42.47;17.97;;;;;;;;;;5005516;28;20199;-86
2021/12/27 07:36:08;;;;;;;38.03;15.93;;;;;;;;;;5010272;28;20183;-86
2021/12/27 07:38:39;;;;;;;41.50;16.90;;;;;;;;;;5007159;28;20194;-86
2021/12/27 07:41:04;;;;;;;43.20;17.50;;;;;;;;;;5011343;28;20642;-86
2021/12/27 07:43:30;;;;;;;37.97;17.07;;;;;;;;;;5013839;28;20248;-86
2021/12/27 07:45:55;;;;;;;38.67;15.97;;;;;;;;;;5011319;28;20228;-86
2021/12/27 07:48:21;;;;;;;43.77;17.67;;;;;;;;;;5009880;28;20533;-86
2021/12/27 07:50:46;;;;;;;44.17;17.47;;;;;;;;;;5006697;28;20187;-86
2021/12/27 07:53:12;;;;;;;53.47;18.20;;;;;;;;;;4662177;28;9999701;-85
2021/12/27 07:55:37;;;;;;;50.87;16.90;;;;;;;;;;5008028;28;20225;-86
2021/12/27 07:58:03;;;;;;;52.73;18.40;;;;;;;;;;5010024;28;20281;-85
2021/12/27 08:00:29;;;;;;;46.80;17.60;;;;;;;;;;5008911;28;20666;-86
2021/12/27 08:02:57;;;;;;;47.43;17.37;;;;;;;;;;5013517;28;20237;-86
2021/12/27 08:05:25;;;;;;;57.17;18.63;;;;;;;;;;5009424;28;20272;-87
2021/12/27 08:07:50;;;;;;;55.73;18.20;;;;;;;;;;5017251;28;20186;-85
2021/12/27 08:10:19;;;;;;;58.70;18.37;;;;;;;;;;5012644;28;20281;-85
2021/12/27 08:12:44;;;;;;;54.87;18.20;;;;;;;;;;5014706;28;20192;-87
2021/12/27 08:15:11;;;;;;;62.87;18.43;;;;;;;;;;5012447;28;20195;-84
2021/12/27 08:17:38;;;;;;;61.23;18.07;;;;;;;;;;5012143;28;20524;-87
2021/12/27 08:20:05;;;;;;;58.17;17.90;;;;;;;;;;5009730;28;20638;-86
2021/12/27 08:22:32;;;;;;;62.37;19.57;;;;;;;;;;5009463;28;20186;-85
2021/12/27 08:24:58;;;;;;;65.37;19.33;;;;;;;;;;5010230;28;20230;-85
2021/12/27 08:27:25;;;;;;;70.23;18.97;;;;;;;;;;5005929;28;20183;-84
2021/12/27 08:29:51;;;;;;;69.33;19.37;;;;;;;;;;5009643;28;20218;-85
2021/12/27 08:32:17;;;;;;;65.80;20.00;;;;;;;;;;5008692;28;20237;-86
2021/12/27 08:34:42;;;;;;;59.60;19.47;;;;;;;;;;5012815;28;20191;-86
2021/12/27 08:37:08;;;;;;;64.93;19.50;;;;;;;;;;5008088;28;20417;-85
2021/12/27 08:39:34;;;;;;;67.00;19.27;;;;;;;;;;5009891;28;20187;-86
2021/12/27 08:42:03;;;;;;;61.97;18.80;;;;;;;;;;5007873;28;20646;-86
2021/12/27 08:44:29;;;;;;;66.20;19.70;;;;;;;;;;5008851;28;20661;-86
2021/12/27 08:46:54;;;;;;;66.57;20.27;;;;;;;;;;5008092;28;20217;-86
2021/12/27 08:49:22;;;;;;;65.00;19.40;;;;;;;;;;5012833;28;20236;-86
2021/12/27 08:51:47;;;;;;;65.27;19.83;;;;;;;;;;5007895;28;20660;-87
2021/12/27 08:54:13;;;;;;;66.23;19.80;;;;;;;;;;5011681;28;20224;-86
2021/12/27 08:56:41;;;;;;;78.17;20.30;;;;;;;;;;5003445;28;20206;-86
2021/12/27 08:59:07;;;;;;;67.00;19.63;;;;;;;;;;5006998;28;20226;-86
2021/12/27 09:01:32;;;;;;;65.40;20.47;;;;;;;;;;5010330;28;20230;-87
2021/12/27 09:03:58;;;;;;;71.53;19.23;;;;;;;;;;5012657;28;20663;-86
2021/12/27 09:06:23;;;;;;;73.33;19.83;;;;;;;;;;5031736;28;20311;-87
2021/12/27 09:08:51;;;;;;;74.73;20.50;;;;;;;;;;5013976;28;20261;-87
2021/12/27 09:11:17;;;;;;;69.43;20.53;;;;;;;;;;5016138;28;20240;-87
2021/12/27 09:13:49;;;;;;;76.53;21.30;;;;;;;;;;5012632;28;20197;-86
2021/12/27 09:16:15;;;;;;;73.93;21.27;;;;;;;;;;5014005;28;20213;-86
2021/12/27 09:18:40;;;;;;;82.57;22.13;;;;;;;;;;5029420;28;20571;-86
2021/12/27 09:21:07;;;;;;;65.97;20.10;;;;;;;;;;5008864;28;20316;-86
2021/12/27 09:23:32;;;;;;;61.10;21.13;;;;;;;;;;5012222;28;20257;-86
2021/12/27 09:25:58;;;;;;;76.27;20.73;;;;;;;;;;5033260;28;20325;-86
2021/12/27 09:28:23;;;;;;;60.47;20.17;;;;;;;;;;5012306;28;20194;-86
2021/12/27 09:30:49;;;;;;;70.17;20.17;;;;;;;;;;5013144;28;20260;-86
2021/12/27 09:33:15;;;;;;;79.57;20.00;;;;;;;;;;5006800;28;20175;-87
2021/12/27 09:35:40;;;;;;;63.17;20.00;;;;;;;;;;5010656;28;20190;-87
2021/12/27 09:38:08;;;;;;;61.60;19.53;;;;;;;;;;5012552;28;20180;-87
2021/12/27 09:40:33;;;;;;;62.47;20.47;;;;;;;;;;5009464;28;20194;-87
2021/12/27 09:42:59;;;;;;;70.40;19.00;;;;;;;;;;5013856;28;20192;-87
2021/12/27 09:45:24;;;;;;;58.57;19.67;;;;;;;;;;5015174;28;20218;-86
2021/12/27 09:47:51;;;;;;;62.33;20.33;;;;;;;;;;5032110;28;20232;-87
2021/12/27 09:50:33;;;;;;;57.13;19.60;;;;;;;;;;5013616;28;20558;-86
2021/12/27 09:53:01;;;;;;;60.23;20.20;;;;;;;;;;5009798;28;20217;-87
2021/12/27 09:55:27;;;;;;;51.77;18.13;;;;;;;;;;5012244;28;20182;-87
2021/12/27 09:57:54;;;;;;;50.87;17.73;;;;;;;;;;5002736;28;20267;-86
2021/12/27 10:00:19;;;;;;;55.53;18.10;;;;;;;;;;5010884;28;20208;-86
2021/12/27 10:02:49;;;;;;;55.40;18.07;;;;;;;;;;5008800;28;20229;-86
2021/12/27 10:05:15;;;;;;;53.97;18.53;;;;;;;;;;5009802;28;20693;-86
2021/12/27 10:07:43;;;;;;;58.57;18.23;;;;;;;;;;5011658;28;20186;-87
2021/12/27 10:10:10;;;;;;;58.30;18.33;;;;;;;;;;5012441;28;20720;-87
2021/12/27 10:12:37;;;;;;;54.27;18.53;;;;;;;;;;5012748;28;20212;-86
2021/12/27 10:15:08;;;;;;;50.40;18.03;;;;;;;;;;5029875;28;20175;-86
2021/12/27 10:17:36;;;;;;;47.53;18.00;;;;;;;;;;5010014;28;20889;-86
2021/12/27 10:20:12;;;;;;;37.53;16.33;;;;;;;;;;5020243;28;20237;-86
2021/12/27 10:22:42;;;;;;;41.87;17.10;;;;;;;;;;5028057;28;20189;-86
2021/12/27 10:25:16;;;;;;;43.70;16.07;;;;;;;;;;5010179;28;20221;-86
2021/12/27 10:27:42;;;;;;;44.63;16.33;;;;;;;;;;5026683;28;20246;-86
2021/12/27 10:30:10;;;;;;;44.80;16.47;;;;;;;;;;5020634;28;20186;-86
2021/12/27 10:32:35;;;;;;;42.00;16.23;;;;;;;;;;5014424;28;20657;-86
2021/12/27 10:35:05;;;;;;;40.03;16.83;;;;;;;;;;5029595;28;20171;-86
2021/12/27 10:37:32;;;;;;;39.93;16.23;;;;;;;;;;5007198;28;20226;-86
2021/12/27 10:40:02;;;;;;;38.20;15.53;;;;;;;;;;5008930;28;20197;-87
2021/12/27 10:42:31;;;;;;;39.03;15.10;;;;;;;;;;5012441;28;20193;-87
2021/12/27 10:45:00;;;;;;;39.67;15.10;;;;;;;;;;5011128;28;20218;-86
2021/12/27 10:47:32;;;;;;;41.43;16.07;;;;;;;;;;5010121;28;20245;-86
2021/12/27 10:50:03;;;;;;;31.67;14.67;;;;;;;;;;5006172;28;20186;-86
2021/12/27 10:52:42;;;;;;;34.43;14.77;;;;;;;;;;5010371;28;20190;-86
2021/12/27 10:55:07;;;;;;;38.57;14.47;;;;;;;;;;5031554;28;20196;-87
2021/12/27 10:57:33;;;;;;;36.23;14.80;;;;;;;;;;5012328;28;20689;-87
2021/12/27 11:00:37;;;;;;;32.30;15.50;;;;;;;;;;5032383;28;20221;-86
2021/12/27 11:03:03;;;;;;;32.43;14.07;;;;;;;;;;5002100;28;20230;-86
2021/12/27 11:05:34;;;;;;;29.10;13.73;;;;;;;;;;5013746;28;20711;-86
2021/12/27 11:08:04;;;;;;;31.07;13.90;;;;;;;;;;5007074;28;20179;-86
2021/12/27 11:10:33;;;;;;;31.87;14.47;;;;;;;;;;5012786;28;20677;-85
2021/12/27 11:12:59;;;;;;;28.90;13.90;;;;;;;;;;5010912;28;20202;-86
2021/12/27 11:15:35;;;;;;;26.67;13.97;;;;;;;;;;5010724;28;20217;-86
2021/12/27 11:18:01;;;;;;;24.37;13.03;;;;;;;;;;5012252;28;20269;-86
2021/12/27 11:20:27;;;;;;;29.03;14.17;;;;;;;;;;5004592;28;20266;-86
2021/12/27 11:22:57;;;;;;;28.93;13.77;;;;;;;;;;5010418;28;20198;-86
2021/12/27 11:25:38;;;;;;;27.90;14.17;;;;;;;;;;5004353;28;20273;-86
2021/12/27 11:28:25;;;;;;;24.50;12.97;;;;;;;;;;5009790;28;20282;-86
2021/12/27 11:30:52;;;;;;;31.47;14.73;;;;;;;;;;5001179;28;20213;-86
2021/12/27 11:33:20;;;;;;;25.53;13.50;;;;;;;;;;5011953;28;20593;-86
2021/12/27 11:35:51;;;;;;;26.87;13.17;;;;;;;;;;5008026;28;20186;-86
2021/12/27 11:38:34;;;;;;;26.80;12.83;;;;;;;;;;5014460;28;20193;-87
2021/12/27 11:41:02;;;;;;;25.53;12.57;;;;;;;;;;5009240;28;20186;-86
2021/12/27 11:43:50;;;;;;;25.27;12.20;;;;;;;;;;5009483;28;20197;-86
2021/12/27 11:46:19;;;;;;;22.93;13.27;;;;;;;;;;5008436;28;20231;-86
2021/12/27 11:48:54;;;;;;;23.53;12.50;;;;;;;;;;5010190;28;20205;-86
2021/12/27 11:51:39;;;;;;;25.03;11.93;;;;;;;;;;5008061;28;20719;-86
2021/12/27 11:54:28;;;;;;;21.33;11.63;;;;;;;;;;5010638;28;20179;-86
2021/12/27 11:56:55;;;;;;;19.87;11.90;;;;;;;;;;4999572;28;20248;-86
2021/12/27 11:59:36;;;;;;;23.30;12.43;;;;;;;;;;5010016;28;20199;-86
2021/12/27 12:02:23;;;;;;;22.17;12.07;;;;;;;;;;5008342;28;20226;-86
2021/12/27 12:04:51;;;;;;;23.27;11.33;;;;;;;;;;5012638;28;20246;-86
2021/12/27 12:07:35;;;;;;;19.67;11.57;;;;;;;;;;5010940;28;20731;-86
2021/12/27 12:10:01;;;;;;;18.53;11.50;;;;;;;;;;5011747;28;20267;-86
2021/12/27 12:12:29;;;;;;;18.53;11.03;;;;;;;;;;5009248;28;20505;-86
2021/12/27 12:15:00;;;;;;;24.03;12.03;;;;;;;;;;5010695;28;20226;-86
2021/12/27 12:17:44;;;;;;;19.63;12.13;;;;;;;;;;5013054;28;20183;-86
2021/12/27 12:20:28;;;;;;;20.83;11.80;;;;;;;;;;5011345;28;20254;-86
2021/12/27 12:23:05;;;;;;;20.63;11.27;;;;;;;;;;5003782;28;20263;-86
2021/12/27 12:25:31;;;;;;;21.57;11.47;;;;;;;;;;5015890;28;20249;-87
2021/12/27 12:28:03;;;;;;;23.13;11.60;;;;;;;;;;5004900;28;20182;-86
2021/12/27 12:30:35;;;;;;;25.20;12.10;;;;;;;;;;5020526;28;20269;-86
2021/12/27 12:33:15;;;;;;;20.07;11.80;;;;;;;;;;4933225;28;10000928;-87
2021/12/27 12:35:43;;;;;;;20.80;11.40;;;;;;;;;;5027935;28;20423;-86
2021/12/27 12:38:13;;;;;;;21.23;11.20;;;;;;;;;;5003517;28;20221;-86
2021/12/27 12:40:39;;;;;;;19.70;11.30;;;;;;;;;;5016323;28;20258;-86
2021/12/27 12:43:06;;;;;;;16.67;10.83;;;;;;;;;;5008023;28;20856;-86
2021/12/27 12:45:33;;;;;;;20.00;11.20;;;;;;;;;;5006369;28;20210;-86
2021/12/27 12:47:59;;;;;;;18.27;10.70;;;;;;;;;;5016385;28;20192;-87
2021/12/27 12:50:26;;;;;;;16.23;9.77;;;;;;;;;;5011938;28;20191;-87
2021/12/27 12:52:54;;;;;;;20.20;11.13;;;;;;;;;;5015612;28;20186;-87
2021/12/27 12:55:31;;;;;;;17.53;10.07;;;;;;;;;;5012393;28;20190;-86
2021/12/27 12:57:57;;;;;;;15.83;10.00;;;;;;;;;;5013770;28;20247;-86
2021/12/27 13:00:24;;;;;;;14.07;9.83;;;;;;;;;;5012178;28;20183;-87
2021/12/27 13:02:50;;;;;;;18.30;10.47;;;;;;;;;;5013570;28;20231;-86
2021/12/27 13:05:18;;;;;;;18.90;9.77;;;;;;;;;;5007618;28;20277;-86
2021/12/27 13:07:53;;;;;;;17.03;10.07;;;;;;;;;;5017916;28;20241;-86
2021/12/27 13:10:27;;;;;;;18.40;10.20;;;;;;;;;;5009821;28;20219;-86
2021/12/27 13:13:14;;;;;;;17.37;10.03;;;;;;;;;;5013542;28;20190;-86
2021/12/27 13:15:58;;;;;;;17.27;10.20;;;;;;;;;;5015105;28;20245;-86
2021/12/27 13:18:29;;;;;;;18.37;10.57;;;;;;;;;;5014459;28;20245;-86
2021/12/27 13:21:11;;;;;;;16.80;10.10;;;;;;;;;;5008495;28;20193;-86
2021/12/27 13:23:42;;;;;;;15.33;10.40;;;;;;;;;;5015957;28;20183;-86
2021/12/27 13:26:16;;;;;;;20.67;10.80;;;;;;;;;;5007461;28;20211;-86
2021/12/27 13:28:46;;;;;;;18.33;10.33;;;;;;;;;;5011699;28;20901;-86
2021/12/27 13:31:23;;;;;;;18.13;11.70;;;;;;;;;;5012491;28;20186;-86
2021/12/27 13:33:48;;;;;;;19.00;10.40;;;;;;;;;;5014067;28;20175;-85
2021/12/27 13:36:20;;;;;;;20.03;10.97;;;;;;;;;;5011417;28;20187;-86
2021/12/27 13:38:58;;;;;;;17.70;10.43;;;;;;;;;;5011311;28;20565;-86
2021/12/27 13:41:26;;;;;;;17.90;10.97;;;;;;;;;;5009685;28;20366;-86
2021/12/27 13:43:55;;;;;;;14.33;10.13;;;;;;;;;;5012016;28;20560;-87
2021/12/27 13:46:25;;;;;;;17.27;10.57;;;;;;;;;;5009015;28;20256;-87
2021/12/27 13:48:51;;;;;;;16.30;10.27;;;;;;;;;;5015426;28;20194;-85
2021/12/27 13:51:22;;;;;;;17.17;10.77;;;;;;;;;;5015255;28;20712;-86
2021/12/27 13:53:59;;;;;;;15.87;10.33;;;;;;;;;;5007824;28;20650;-86
2021/12/27 13:56:27;;;;;;;16.93;10.30;;;;;;;;;;5017962;28;20274;-85
2021/12/27 13:58:53;;;;;;;16.07;10.23;;;;;;;;;;5009320;28;20206;-85
2021/12/27 14:01:21;;;;;;;14.40;9.27;;;;;;;;;;5013406;28;20210;-86
2021/12/27 14:03:50;;;;;;;16.83;10.20;;;;;;;;;;5008776;28;20233;-85
2021/12/27 14:06:17;;;;;;;15.97;9.70;;;;;;;;;;5018932;28;20202;-85
2021/12/27 14:09:05;;;;;;;14.30;8.50;;;;;;;;;;5010576;28;20190;-86
2021/12/27 14:11:30;;;;;;;17.10;10.20;;;;;;;;;;5010688;28;20217;-86
2021/12/27 14:14:04;;;;;;;16.33;9.53;;;;;;;;;;5012306;28;20183;-85
2021/12/27 14:16:38;;;;;;;15.83;9.33;;;;;;;;;;5009578;28;20190;-85
2021/12/27 14:19:11;;;;;;;15.67;9.87;;;;;;;;;;5009893;28;20632;-86
2021/12/27 14:21:56;;;;;;;15.97;9.77;;;;;;;;;;5012538;28;21754;-86
2021/12/27 14:24:38;;;;;;;17.10;10.03;;;;;;;;;;5003974;28;20199;-86